This is the latest recevied weather packets stored in our database for station/object VK5ALG-13. If no packets are shown the sender has not sent any weather packets the latest 10 day(s).
| Time | Temp. | Humidity | Pressure | Rain* | Wind** | Luminosity | Snow |
|---|---|---|---|---|---|---|---|
| 1777956021 | 20° C | 50% | 1023.1 hPa | 0 mm | - | - | - |
| 1777955423 | 19.44° C | 54% | 1023.2 hPa | 0 mm | - | - | - |
| 1777951877 | 18.33° C | 60% | 1023.7 hPa | 0 mm | - | - | - |
| 1777951233 | 17.78° C | 60% | 1023.8 hPa | 0 mm | - | - | - |
| 1777939826 | 14.44° C | 92% | 1023.8 hPa | 0 mm | - | - | - |
| 1777937432 | 13.89° C | 97% | 1023.6 hPa | 0 mm | - | - | - |
| 1777936828 | 13.33° C | 97% | 1023.6 hPa | 0 mm | - | - | - |
| 1777929022 | 11.67° C | 97% | 1022.3 hPa | 0 mm | - | - | - |
| 1777928419 | 11.67° C | 97% | 1022.3 hPa | 0 mm | - | - | - |
| 1777927232 | 11.67° C | 97% | 1022 hPa | 0 mm | - | - | - |
| 1777921819 | 10.56° C | 97% | 1021.3 hPa | 0 mm | - | - | - |
| 1777920632 | 11.11° C | 96% | 1021.2 hPa | 0 mm | - | - | - |
| 1777918841 | 11.67° C | 96% | 1021.1 hPa | 0.25 mm | - | - | - |
| 1777916427 | 12.22° C | 96% | 1021 hPa | 0.25 mm | - | - | - |
| 1777905019 | 11.67° C | 95% | 1020.8 hPa | 0 mm | - | - | - |
| 1777903229 | 11.11° C | 94% | 1020.8 hPa | 0 mm | - | - | - |
| 1777902022 | 11.67° C | 94% | 1020.5 hPa | 0 mm | - | - | - |
| 1777900231 | 11.67° C | 94% | 1020.5 hPa | 0.25 mm | - | - | - |
| 1777899628 | 12.22° C | 94% | 1020.4 hPa | 0.25 mm | - | - | - |
| 1777893631 | 13.89° C | 91% | 1019.9 hPa | 1.78 mm | - | - | - |
| 1777887031 | 15° C | 82% | 1018.4 hPa | 0 mm | - | - | - |
| 1777884617 | 15.56° C | 71% | 1017.8 hPa | 0 mm | - | - | - |
| 1777883430 | 15.56° C | 70% | 1017.4 hPa | 0 mm | - | - | - |
| 1777882827 | 16.11° C | 69% | 1017.3 hPa | 0 mm | - | - | - |
| 1777881618 | 16.11° C | 69% | 1017.1 hPa | 0 mm | - | - | - |
* Rain latest hour (hover to see other rain measurements)
** Current wind speed in m/s (hover to see current wind gust speed)